Latest Weather Observations for Hindmarsh Island

IDS60901

Issued at 7:01 pm CDT Tuesday 22 October 2019 (issued every 10 minutes, with the page automatically refreshed every 10 minutes)

About weather observations | Map of Adelaide area stations | Latest observations for Adelaide area | Other Formats
Station Details ID: 023894 Name: HINDMARSH ISLAND AWS Lat: -35.52 Lon: 138.82 Height: 11.0 m
Data from the previous 72 hours. | See also: Recent months at Hindmarsh Island
Date/Time
CDT
Temp
°C
App
Temp
°C
Dew
Point
°C
Rel
Hum
%
Delta-T
°C
Wind Press
QNH
hPa
Press
MSL
hPa
Rain since
9am
mm
Dir  Spd
km/h
Gust
km/h
Spd
kts
Gust
kts
22/07:00pm 21.4 17.5 8.7 44 6.7 SE 19 20 10 11 1020.2 1020.2 0.0
22/06:30pm 22.9 19.0 8.6 40 7.6 SE 19 20 10 11 1020.1 1020.1 0.0
22/06:00pm 24.4 20.1 7.1 33 9.0 SE 19 20 10 11 1020.1 1020.1 0.0
22/05:30pm 25.3 21.4 8.7 35 8.9 SE 19 20 10 11 1020.1 1020.1 0.0
22/05:00pm 25.7 21.8 9.5 36 8.9 SE 20 24 11 13 1020.2 1020.2 0.0
22/04:30pm 25.8 21.8 9.2 35 9.0 SE 20 24 11 13 1020.4 1020.4 0.0
22/04:00pm 26.7 22.0 7.7 30 10.2 SE 22 26 12 14 1020.4 1020.4 0.0
22/03:30pm 26.2 22.1 8.7 33 9.5 SSE 20 24 11 13 1020.7 1020.7 0.0
22/03:00pm 27.9 24.3 6.6 26 11.2 SSE 15 19 8 10 1021.0 1021.0 0.0
22/02:30pm 28.0 23.8 7.3 27 11.0 SSE 19 24 10 13 1021.4 1021.4 0.0
22/02:00pm 28.3 23.5 5.8 24 11.7 SSE 20 24 11 13 1021.8 1021.8 0.0
22/01:30pm 28.6 25.1 8.8 29 10.9 SSE 17 22 9 12 1022.0 1022.0 0.0
22/01:00pm 27.9 24.7 4.9 23 11.8 SE 11 15 6 8 1022.2 1022.2 0.0
22/12:30pm 28.5 26.1 5.4 23 11.9 ENE 7 15 4 8 1022.8 1022.8 0.0
22/12:00pm 26.8 23.8 6.2 27 10.7 NNE 11 17 6 9 1023.3 1023.3 0.0
22/11:30am 25.5 22.6 8.1 33 9.3 NE 13 20 7 11 1023.5 1023.5 0.0
22/11:00am 25.1 21.9 8.6 35 8.9 ENE 15 20 8 11 1023.8 1023.8 0.0
22/10:30am 23.6 19.6 8.1 37 8.2 NE 19 24 10 13 1024.1 1024.1 0.0
22/10:00am 21.7 17.6 7.9 41 7.2 NNE 19 24 10 13 1024.1 1024.1 0.0
22/09:30am 20.0 16.2 9.0 49 5.8 NNE 19 22 10 12 1024.3 1024.3 0.0
22/09:00am 17.1 13.3 9.0 59 4.2 NNE 19 24 10 13 1024.2 1024.2 0.0
22/08:30am 15.2 11.2 8.2 63 3.5 NNE 19 24 10 13 1024.2 1024.2 0.0
22/08:00am 13.3 9.7 8.4 72 2.4 NNE 17 20 9 11 1024.1 1024.1 0.0
22/07:30am 11.9 8.9 7.8 76 2.0 NNE 13 17 7 9 1024.0 1024.0 0.0
22/07:00am 9.6 7.1 6.7 82 1.4 NNE 9 13 5 7 1023.8 1023.8 0.0
22/06:30am 9.4 7.9 6.7 83 1.3 NNE 4 7 2 4 1023.8 1023.8 0.0
22/06:00am 9.7 8.2 7.0 83 1.3 N 4 7 2 4 1023.6 1023.6 0.0
22/05:30am 9.4 7.3 6.8 84 1.2 N 7 9 4 5 1023.4 1023.4 0.0
22/05:00am 10.0 7.7 7.6 85 1.1 N 9 9 5 5 1023.4 1023.4 0.0
22/04:30am 10.2 7.3 8.0 86 1.1 NNE 13 15 7 8 1023.3 1023.3 0.0
22/04:00am 10.7 8.9 8.1 84 1.3 N 7 9 4 5 1023.5 1023.5 0.0
22/03:30am 10.2 8.3 7.4 83 1.3 N 7 9 4 5 1023.5 1023.5 0.0
22/03:00am 11.6 10.0 8.6 82 1.5 N 7 9 4 5 1023.8 1023.8 0.0
22/02:30am 11.6 9.9 8.3 80 1.6 N 7 9 4 5 1023.9 1023.9 0.0
22/02:00am 11.2 9.3 7.7 79 1.7 N 7 7 4 4 1024.1 1024.1 0.0
22/01:30am 12.0 10.0 8.7 80 1.6 N 9 13 5 7 1024.5 1024.5 0.0
22/01:00am 11.5 8.7 8.4 81 1.5 N 13 15 7 8 1024.6 1024.6 0.0
22/12:30am 11.7 9.4 8.9 83 1.4 N 11 11 6 6 1024.9 1024.9 0.0
22/12:00am 11.9 10.1 9.3 84 1.3 NNW 9 11 5 6 1025.1 1025.1 0.0
 
Date/Time
CDT
Temp
°C
App
Temp
°C
Dew
Point
°C
Rel
Hum
%
Delta-T
°C
Wind Press
QNH
hPa
Press
MSL
hPa
Rain since
9am
mm
Dir  Spd
km/h
Gust
km/h
Spd
kts
Gust
kts
21/11:30pm 12.9 11.4 10.4 85 1.3 NW 9 9 5 5 1025.2 1025.2 0.0
21/11:00pm 12.7 11.5 10.2 85 1.3 WNW 7 9 4 5 1025.4 1025.4 0.0
21/10:30pm 13.7 12.8 11.2 85 1.3 W 7 9 4 5 1025.7 1025.7 0.0
21/10:00pm 13.4 12.3 10.6 83 1.5 WNW 7 9 4 5 1025.8 1025.8 0.0
21/09:30pm 14.3 13.6 11.5 83 1.5 SSW 6 7 3 4 1025.8 1025.8 0.0
21/09:00pm 14.3 13.1 11.5 83 1.5 SSW 9 11 5 6 1025.7 1025.7 0.0
21/08:30pm 14.4 13.1 11.2 81 1.7 SSW 9 11 5 6 1025.5 1025.5 0.0
21/08:00pm 14.8 13.9 11.2 79 1.9 SSE 7 11 4 6 1025.4 1025.4 0.0
21/07:30pm 15.5 13.9 11.7 78 2.0 SSE 11 15 6 8 1025.2 1025.2 0.0
21/07:00pm 16.2 13.5 11.6 74 2.5 SSE 17 19 9 10 1025.1 1025.1 0.0
21/06:30pm 17.0 14.2 11.5 70 3.0 SSE 17 20 9 11 1025.2 1025.2 0.0
21/06:00pm 17.6 15.0 11.9 69 3.1 SSE 17 20 9 11 1025.3 1025.3 0.0
21/05:30pm 17.9 14.6 11.7 67 3.4 SSE 20 22 11 12 1025.0 1025.0 0.0
21/05:00pm 18.5 15.3 12.0 66 3.6 SSE 20 22 11 12 1025.1 1025.1 0.0
21/04:30pm 18.4 14.6 11.0 62 4.0 SSE 22 24 12 13 1025.2 1025.2 0.0
21/04:00pm 19.1 15.0 11.4 61 4.2 SSE 24 28 13 15 1025.3 1025.3 0.0
21/03:30pm 19.2 14.6 11.0 59 4.4 SSE 26 30 14 16 1025.4 1025.4 0.0
21/03:00pm 19.9 15.3 11.1 57 4.8 SSE 26 30 14 16 1025.7 1025.7 0.0
21/02:30pm 20.9 15.2 8.5 45 6.5 SSE 28 32 15 17 1025.8 1025.8 0.0
21/02:00pm 21.0 15.9 10.5 51 5.7 SSE 28 33 15 18 1026.1 1026.1 0.0
21/01:30pm 22.6 19.5 10.4 46 6.7 SE 17 26 9 14 1026.2 1026.2 0.0
21/01:00pm 22.4 19.4 7.8 39 7.6 ENE 13 20 7 11 1026.6 1026.6 0.0
21/12:30pm 20.7 17.5 7.0 41 6.9 ENE 13 17 7 9 1027.2 1027.2 0.0
21/12:00pm 19.7 17.1 7.8 46 6.1 NE 11 19 6 10 1027.6 1027.6 0.0
21/11:30am 18.9 15.5 7.7 48 5.7 NE 15 24 8 13 1028.0 1028.0 0.0
21/11:00am 17.8 14.6 8.4 54 4.8 NE 15 24 8 13 1028.2 1028.2 0.0
21/10:30am 16.9 12.7 8.1 56 4.4 ENE 20 28 11 15 1028.6 1028.6 0.0
21/10:00am 15.0 10.7 6.8 58 4.0 NE 19 28 10 15 1028.8 1028.8 0.0
21/09:30am 14.0 9.4 6.6 61 3.5 NE 20 28 11 15 1029.1 1029.1 0.0
21/09:00am 12.8 8.3 6.8 67 2.9 NNE 20 26 11 14 1029.2 1029.2 0.0
21/08:30am 11.6 7.2 6.7 72 2.3 NNE 19 24 10 13 1029.2 1029.2 0.0
21/08:00am 10.5 6.8 6.5 76 1.9 NNE 15 20 8 11 1029.0 1029.0 0.0
21/07:30am 9.4 6.0 6.1 80 1.5 NNE 13 15 7 8 1028.8 1028.8 0.0
21/07:00am 8.5 5.0 5.6 82 1.3 NNE 13 15 7 8 1028.6 1028.6 0.0
21/06:30am 8.3 5.6 5.6 83 1.2 NNE 9 13 5 7 1028.2 1028.2 0.0
21/06:00am 8.6 5.5 5.7 82 1.3 N 11 13 6 7 1028.2 1028.2 0.0
21/05:30am 8.7 5.2 5.6 81 1.4 N 13 17 7 9 1028.1 1028.1 0.0
21/05:00am 8.6 5.2 5.7 82 1.3 N 13 15 7 8 1028.2 1028.2 0.0
21/04:30am 8.5 5.4 5.6 82 1.3 N 11 15 6 8 1028.1 1028.1 0.0
21/04:00am 8.8 5.8 6.1 83 1.2 N 11 13 6 7 1027.9 1027.9 0.0
21/03:30am 8.8 5.8 5.9 82 1.3 N 11 13 6 7 1027.7 1027.7 0.0
21/03:00am 9.4 5.7 6.3 81 1.4 N 15 17 8 9 1027.7 1027.7 0.0
21/02:30am 8.9 5.5 5.8 81 1.4 NNE 13 15 7 8 1027.8 1027.8 0.0
21/02:00am 8.8 4.9 5.5 80 1.5 ENE 15 15 8 8 1028.5 1028.5 0.0
21/01:30am 8.9 4.7 5.6 80 1.5 ENE 17 19 9 10 1028.9 1028.9 0.0
21/01:00am 9.5 5.7 5.7 77 1.7 ENE 15 15 8 8 1029.7 1029.7 0.0
21/12:30am 10.5 7.5 6.1 74 2.0 ENE 11 13 6 7 1030.2 1030.2 0.0
21/12:00am 11.1 8.2 6.3 72 2.2 ENE 11 13 6 7 1030.3 1030.3 0.0
 
Date/Time
CDT
Temp
°C
App
Temp
°C
Dew
Point
°C
Rel
Hum
%
Delta-T
°C
Wind Press
QNH
hPa
Press
MSL
hPa
Rain since
9am
mm
Dir  Spd
km/h
Gust
km/h
Spd
kts
Gust
kts
20/11:30pm 11.7 9.2 6.4 70 2.5 E 9 13 5 7 1030.3 1030.3 0.0
20/11:00pm 12.7 9.5 7.0 68 2.7 ESE 13 17 7 9 1030.3 1030.3 0.0
20/10:30pm 13.1 9.6 7.3 68 2.8 ESE 15 19 8 10 1030.5 1030.5 0.0
20/10:00pm 13.2 8.9 7.2 67 2.9 SE 19 22 10 12 1030.3 1030.3 0.0
20/09:30pm 13.1 9.5 6.9 66 3.0 SSE 15 20 8 11 1030.2 1030.2 0.0
20/09:00pm 13.0 9.2 7.5 69 2.7 SSE 17 20 9 11 1029.8 1029.8 0.0
20/08:30pm 12.9 8.6 7.1 68 2.8 SSE 19 24 10 13 1029.5 1029.5 0.0
20/08:00pm 13.0 8.7 7.0 67 2.9 SSE 19 20 10 11 1029.4 1029.4 0.0
20/07:30pm 13.3 9.0 6.9 65 3.1 SSE 19 22 10 12 1029.1 1029.1 0.0
20/07:00pm 13.7 9.2 7.0 64 3.3 SSE 20 22 11 12 1028.9 1028.9 0.0
20/06:30pm 14.2 9.7 7.0 62 3.5 SSE 20 28 11 15 1028.8 1028.8 0.0
20/06:00pm 14.6 9.8 7.2 61 3.6 SSE 22 28 12 15 1028.6 1028.6 0.0
20/05:30pm 14.9 9.9 6.5 57 4.0 S 22 26 12 14 1028.3 1028.3 0.0
20/05:00pm 15.5 10.3 7.3 58 4.1 S 24 30 13 16 1028.4 1028.4 0.0
20/04:30pm 15.8 10.5 6.8 55 4.4 S 24 30 13 16 1028.4 1028.4 0.0
20/04:00pm 15.9 10.6 6.6 54 4.5 S 24 30 13 16 1028.3 1028.3 0.0
20/03:30pm 15.9 10.3 7.1 56 4.3 S 26 30 14 16 1028.5 1028.5 0.0
20/03:00pm 16.4 11.2 7.3 55 4.5 S 24 30 13 16 1028.6 1028.6 0.0
20/02:30pm 16.7 11.7 6.5 51 5.0 S 22 28 12 15 1028.7 1028.7 0.0
20/02:00pm 16.4 11.4 6.5 52 4.8 S 22 30 12 16 1028.8 1028.8 0.0
20/01:30pm 16.9 11.4 5.8 48 5.3 S 24 28 13 15 1028.7 1028.7 0.0
20/01:00pm 16.8 11.6 5.7 48 5.4 SSW 22 28 12 15 1028.9 1028.9 0.0
20/12:30pm 16.4 11.6 5.7 49 5.1 SSW 20 26 11 14 1029.0 1029.0 0.0
20/12:00pm 16.9 12.5 6.4 50 5.1 SSW 19 26 10 14 1029.0 1029.0 0.0
20/11:30am 16.4 12.3 6.2 51 4.9 SSW 17 20 9 11 1029.2 1029.2 0.0
20/11:00am 15.8 11.7 6.0 52 4.7 SW 17 24 9 13 1029.4 1029.4 0.0
20/10:30am 15.2 10.9 5.1 51 4.7 SSW 17 24 9 13 1029.5 1029.5 0.0
20/10:00am 14.3 10.1 5.9 57 4.0 SW 17 24 9 13 1029.5 1029.5 0.0
20/09:30am 14.7 10.5 5.8 55 4.2 SSW 17 20 9 11 1029.4 1029.4 0.0
20/09:00am 14.4 11.0 5.7 56 4.1 SW 13 19 7 10 1029.4 1029.4 0.0
20/08:30am 14.3 10.0 5.4 55 4.2 SW 17 20 9 11 1029.2 1029.2 0.0
20/08:00am 13.4 8.8 5.6 59 3.7 SSW 19 24 10 13 1028.9 1028.9 0.0
20/07:30am 12.9 8.3 6.5 65 3.0 SSW 20 26 11 14 1028.6 1028.6 0.0
20/07:00am 12.3 7.7 6.4 67 2.8 SSW 20 24 11 13 1028.3 1028.3 0.0
20/06:30am 12.4 7.8 6.7 68 2.7 SSW 20 26 11 14 1027.9 1027.9 0.0
20/06:00am 12.3 7.3 6.4 67 2.8 SSW 22 26 12 14 1027.5 1027.5 0.0
20/05:30am 12.5 7.2 7.0 69 2.6 SSW 24 28 13 15 1027.2 1027.2 0.0
20/05:00am 12.5 7.2 6.8 68 2.7 SSW 24 28 13 15 1026.8 1026.8 0.0
20/04:30am 12.3 8.1 7.6 73 2.3 SW 19 24 10 13 1026.7 1026.7 0.0
20/04:00am 13.0 8.2 7.2 68 2.8 SW 22 28 12 15 1026.4 1026.4 0.0
20/03:30am 13.0 8.5 7.0 67 2.9 SW 20 24 11 13 1026.4 1026.4 0.0
20/03:00am 12.8 8.1 6.2 64 3.1 SW 20 26 11 14 1026.4 1026.4 0.0
20/02:30am 12.5 7.8 6.1 65 3.0 SSW 20 26 11 14 1026.4 1026.4 0.0
20/02:00am 12.5 6.6 5.7 63 3.2 SSW 26 30 14 16 1026.5 1026.5 0.0
20/01:30am 12.6 6.3 5.5 62 3.3 SSW 28 33 15 18 1026.5 1026.5 0.0
20/01:00am 12.5 6.2 5.9 64 3.1 SSW 28 32 15 17 1026.6 1026.6 0.0
20/12:30am 12.5 5.8 5.4 62 3.3 SSW 30 37 16 20 1026.4 1026.4 0.0
20/12:00am 12.6 6.4 6.0 64 3.1 SSW 28 33 15 18 1026.3 1026.3 0.0
 
Date/Time
CDT
Temp
°C
App
Temp
°C
Dew
Point
°C
Rel
Hum
%
Delta-T
°C
Wind Press
QNH
hPa
Press
MSL
hPa
Rain since
9am
mm
Dir  Spd
km/h
Gust
km/h
Spd
kts
Gust
kts
19/11:30pm 12.7 7.9 7.4 70 2.6 SW 22 28 12 15 1026.4 1026.4 0.0
19/11:00pm 12.8 7.1 6.8 67 2.9 SSW 26 32 14 17 1026.3 1026.3 0.0
19/10:30pm 12.7 6.0 5.6 62 3.3 SW 30 35 16 19 1026.3 1026.3 0.0
19/10:00pm 13.1 6.4 8.0 71 2.5 SSW 33 43 18 23 1026.5 1026.5 0.0
19/09:30pm 12.9 6.9 5.3 60 3.5 SW 26 33 14 18 1026.3 1026.3 0.0
19/09:00pm 12.7 6.4 5.8 63 3.2 SSW 28 35 15 19 1026.1 1026.1 0.0
19/08:30pm 13.1 7.0 6.7 65 3.1 SW 28 35 15 19 1025.8 1025.8 0.0
19/08:00pm 12.8 6.2 5.9 63 3.2 SW 30 37 16 20 1025.5 1025.5 0.0
19/07:30pm 12.9 6.7 6.0 63 3.2 SW 28 35 15 19 1025.2 1025.2 0.0

Latest Capital City Observations: Canberra | Sydney | Melbourne | Brisbane | Adelaide | Perth | Hobart | Darwin

Other formats

Comma delimited format used in spreadsheet applications
http://www.bom.gov.au/fwo/IDS60901/IDS60901.94677.axf

JavaScript Object Notation format (JSON) in row-major order
http://www.bom.gov.au/fwo/IDS60901/IDS60901.94677.json

Data quality

Most of these data are generated automatically and are frequently updated. Quality checks on data are not normally performed. It is possible for incorrect values to appear. Refer to information at About Latest Weather Observations and please check the disclaimer before using these data.